createdAt,value
2019-02-24T00:01:36.662Z,60474.10
2019-02-24T00:04:05.079Z,60494.43
2019-02-24T00:06:33.465Z,60475.12
2019-02-24T00:09:01.851Z,60474.10
2019-02-24T00:11:30.258Z,60458.86
2019-02-24T00:13:58.648Z,60488.33
2019-02-24T00:16:27.038Z,60483.25
2019-02-24T00:18:55.468Z,60495.44
2019-02-24T00:21:24.223Z,60478.16
2019-02-24T00:23:52.908Z,60487.31
2019-02-24T00:26:21.312Z,60504.59
2019-02-24T00:28:49.707Z,60484.26
2019-02-24T00:31:18.116Z,60457.84
2019-02-24T00:33:46.731Z,60473.09
2019-02-24T00:36:15.132Z,60486.29
2019-02-24T00:38:44.622Z,60462.92
2019-02-24T00:41:13.025Z,60473.09
2019-02-24T00:43:41.417Z,60465.97
2019-02-24T00:46:10.059Z,60486.29
2019-02-24T00:48:38.464Z,60477.15
2019-02-24T00:51:06.933Z,60482.23
2019-02-24T00:53:35.323Z,60460.89
2019-02-24T00:56:03.786Z,60502.55
2019-02-24T00:58:32.467Z,60527.96
2019-02-24T01:01:00.855Z,60514.75
2019-02-24T01:03:29.535Z,60476.13
2019-02-24T01:05:57.957Z,60491.38
2019-02-24T01:08:26.343Z,60478.16
2019-02-24T01:10:54.974Z,60483.25
2019-02-24T01:13:23.373Z,60485.28
2019-02-24T01:15:51.759Z,60480.20
2019-02-24T01:18:20.135Z,60474.10
2019-02-24T01:20:48.541Z,60496.46
2019-02-24T01:23:16.993Z,60492.39
2019-02-24T01:25:45.401Z,60465.97
2019-02-24T01:28:13.783Z,60458.86
2019-02-24T01:30:42.193Z,60474.10
2019-02-24T01:33:10.899Z,60494.43
2019-02-24T01:35:39.588Z,60496.46
2019-02-24T01:38:07.995Z,60490.36
2019-02-24T01:40:36.461Z,60466.99
2019-02-24T01:43:04.976Z,60477.15
2019-02-24T01:45:33.440Z,60519.83
2019-02-24T01:48:02.015Z,60497.47
2019-02-24T01:50:30.681Z,60476.13
2019-02-24T01:52:59.091Z,60483.25
2019-02-24T01:55:27.478Z,60479.18
2019-02-24T01:57:55.884Z,60483.25
2019-02-24T02:00:24.291Z,60473.09
2019-02-24T02:02:52.983Z,60475.12
2019-02-24T02:05:21.669Z,60460.89
2019-02-24T02:07:50.075Z,60475.12
2019-02-24T02:10:18.546Z,60482.23
2019-02-24T02:12:46.943Z,60479.18
2019-02-24T02:15:15.355Z,60496.46
2019-02-24T02:17:43.760Z,60499.50
2019-02-24T02:20:12.148Z,60501.54
2019-02-24T02:22:40.558Z,60495.44
2019-02-24T02:25:09.589Z,60471.05
2019-02-24T02:27:38.023Z,60474.10
2019-02-24T02:30:09.876Z,60496.46
2019-02-24T02:32:38.259Z,60470.04
2019-02-24T02:35:08.081Z,60491.38
2019-02-24T02:37:36.742Z,60495.44
2019-02-24T02:40:07.271Z,60476.13
2019-02-24T02:42:35.655Z,60484.26
2019-02-24T02:45:05.526Z,60475.12
2019-02-24T02:47:33.922Z,60499.50
2019-02-24T02:50:02.320Z,60492.39
2019-02-24T02:52:30.725Z,60497.47
2019-02-24T02:54:59.110Z,60475.12
2019-02-24T02:57:27.492Z,60518.82
2019-02-24T02:59:56.252Z,60501.54
2019-02-24T03:02:24.920Z,60473.09
2019-02-24T03:04:53.407Z,60504.59
2019-02-24T03:07:29.193Z,60506.62
2019-02-24T03:09:57.587Z,60490.36
2019-02-24T03:12:25.982Z,60485.28
2019-02-24T03:14:54.377Z,60494.43
2019-02-24T03:17:22.776Z,60512.72
2019-02-24T03:19:51.166Z,60502.55
2019-02-24T03:22:19.564Z,60487.31
2019-02-24T03:24:47.962Z,60507.64
2019-02-24T03:27:16.815Z,60485.28
2019-02-24T03:29:45.203Z,60490.36
2019-02-24T03:32:13.610Z,60480.20
2019-02-24T03:34:42.004Z,60464.96
2019-02-24T03:37:10.482Z,60507.64
2019-02-24T03:39:38.879Z,60483.25
2019-02-24T03:42:07.261Z,60486.29
2019-02-24T03:44:35.976Z,60497.47
2019-02-24T03:47:04.356Z,60495.44
2019-02-24T03:49:32.743Z,60513.73
2019-02-24T03:52:01.134Z,60458.86
2019-02-24T03:54:29.527Z,60508.65
2019-02-24T03:56:57.936Z,60518.82
2019-02-24T03:59:26.328Z,60478.16
2019-02-24T04:01:55.043Z,60514.75
2019-02-24T04:04:23.738Z,60494.43
2019-02-24T04:06:52.183Z,60501.54
2019-02-24T04:09:20.585Z,60483.25
2019-02-24T04:11:48.994Z,60503.57
2019-02-24T04:14:17.378Z,60481.21
2019-02-24T04:16:45.910Z,60471.05
2019-02-24T04:19:14.321Z,60494.43
2019-02-24T04:21:42.808Z,60477.15
2019-02-24T04:24:11.471Z,60455.81
2019-02-24T04:26:39.876Z,60466.99
2019-02-24T04:29:08.262Z,60486.29
2019-02-24T04:31:37.123Z,60479.18
2019-02-24T04:34:05.527Z,60474.10
2019-02-24T04:36:33.954Z,60469.02
2019-02-24T04:39:02.482Z,60495.44
2019-02-24T04:41:30.881Z,60491.38
2019-02-24T04:43:59.455Z,60483.25
2019-02-24T04:46:27.840Z,60503.57
2019-02-24T04:48:56.425Z,60498.49
2019-02-24T04:51:24.816Z,60494.43
2019-02-24T04:53:53.224Z,60494.43
2019-02-24T04:56:21.660Z,60507.64
2019-02-24T04:58:50.043Z,60488.33
2019-02-24T05:01:18.528Z,60482.23
2019-02-24T05:03:47.091Z,60507.64
2019-02-24T05:06:15.762Z,60491.38
2019-02-24T05:08:44.166Z,60490.36
2019-02-24T05:11:12.552Z,60502.55
2019-02-24T05:13:41.070Z,60500.52
2019-02-24T05:16:09.508Z,60484.26
2019-02-24T05:18:38.058Z,60479.18
2019-02-24T05:21:06.448Z,60493.41
2019-02-24T05:23:34.853Z,60478.16
2019-02-24T05:26:03.248Z,60507.64
2019-02-24T05:28:31.648Z,60493.41
2019-02-24T05:31:00.038Z,60470.04
2019-02-24T05:33:28.659Z,60487.31
2019-02-24T05:35:57.062Z,60517.80
2019-02-24T05:38:25.711Z,60474.10
2019-02-24T05:40:54.102Z,60507.64
2019-02-24T05:43:22.487Z,60461.91
2019-02-24T05:45:50.907Z,60494.43
2019-02-24T05:48:19.297Z,60492.39
2019-02-24T05:50:47.678Z,60516.78
2019-02-24T05:53:16.133Z,60500.52
2019-02-24T05:55:44.794Z,60477.15
2019-02-24T05:58:13.266Z,60491.38
2019-02-24T06:00:41.674Z,60486.29
2019-02-24T06:03:10.140Z,60491.38
2019-02-24T06:05:38.532Z,60483.25
2019-02-24T06:08:07.184Z,60485.28
2019-02-24T06:10:35.576Z,60519.83
2019-02-24T06:13:03.967Z,60500.52
2019-02-24T06:15:32.554Z,60481.21
2019-02-24T06:18:00.935Z,60492.39
2019-02-24T06:20:29.315Z,60497.47
2019-02-24T06:22:57.720Z,60535.07
2019-02-24T06:25:26.101Z,60481.21
2019-02-24T06:27:54.490Z,60483.25
2019-02-24T06:30:22.885Z,60501.54
2019-02-24T06:32:51.286Z,60523.89
2019-02-24T06:35:19.677Z,60505.60
2019-02-24T06:37:48.345Z,60480.20
2019-02-24T06:40:16.744Z,60502.55
2019-02-24T06:42:45.145Z,60516.78
2019-02-24T06:45:13.536Z,60529.99
2019-02-24T06:47:42.264Z,60495.44
2019-02-24T06:50:11.143Z,60472.07
2019-02-24T06:52:39.556Z,60508.65
2019-02-24T06:55:10.749Z,60494.43
2019-02-24T06:57:39.129Z,60505.60
2019-02-24T07:00:14.093Z,60461.91
2019-02-24T07:02:40.878Z,60479.18
2019-02-24T07:05:10.028Z,60506.62
2019-02-24T07:07:38.413Z,60488.33
2019-02-24T07:10:07.644Z,60495.44
2019-02-24T07:12:36.037Z,60519.83
2019-02-24T07:15:08.501Z,60475.12
2019-02-24T07:17:36.902Z,60491.38
2019-02-24T07:20:07.206Z,60470.04
2019-02-24T07:22:35.594Z,60492.39
2019-02-24T07:25:04.816Z,60495.44
2019-02-24T07:27:33.216Z,60508.65
2019-02-24T07:30:01.697Z,60497.47
2019-02-24T07:32:30.205Z,60492.39
2019-02-24T07:34:58.619Z,60477.15
2019-02-24T07:37:26.999Z,60483.25
2019-02-24T07:39:55.387Z,60448.70
2019-02-24T07:42:23.782Z,60504.59
2019-02-24T07:44:52.173Z,60491.38
2019-02-24T07:47:20.567Z,60497.47
2019-02-24T07:49:49.171Z,60486.29
2019-02-24T07:52:17.554Z,60477.15
2019-02-24T07:54:45.945Z,60469.02
2019-02-24T07:57:14.347Z,60476.13
2019-02-24T07:59:42.736Z,60489.34
2019-02-24T08:02:11.470Z,60485.28
2019-02-24T08:04:39.862Z,60494.43
2019-02-24T08:07:08.343Z,60466.99
2019-02-24T08:09:36.727Z,60477.15
2019-02-24T08:12:05.385Z,60496.46
2019-02-24T08:14:33.765Z,60488.33
2019-02-24T08:17:02.548Z,60477.15
2019-02-24T08:19:30.940Z,60483.25
2019-02-24T08:21:59.337Z,60475.12
2019-02-24T08:24:29.138Z,60482.23
2019-02-24T08:26:57.616Z,60454.79
2019-02-24T08:29:26.163Z,60459.87
2019-02-24T08:31:54.582Z,60500.52
2019-02-24T08:34:23.249Z,60482.23
2019-02-24T08:36:51.655Z,60471.05
2019-02-24T08:39:20.126Z,60480.20
2019-02-24T08:41:48.925Z,60476.13
2019-02-24T08:44:17.585Z,60477.15
2019-02-24T08:46:45.969Z,60480.20
2019-02-24T08:49:14.537Z,60500.52
2019-02-24T08:51:42.908Z,60459.87
2019-02-24T08:54:11.350Z,60453.78
2019-02-24T08:56:39.815Z,60456.82
2019-02-24T08:59:08.306Z,60480.20
2019-02-24T09:01:36.680Z,60463.94
2019-02-24T09:04:05.333Z,60463.94
2019-02-24T09:06:33.709Z,60463.94
2019-02-24T09:09:02.507Z,60437.52
2019-02-24T09:11:30.909Z,60463.94
2019-02-24T09:13:59.287Z,60463.94
2019-02-24T09:16:27.670Z,60458.86
2019-02-24T09:18:56.069Z,60450.73
2019-02-24T09:21:24.443Z,60416.18
2019-02-24T09:23:52.874Z,60468.00
2019-02-24T09:26:21.685Z,60455.81
2019-02-24T09:28:50.967Z,60455.81
2019-02-24T09:31:19.533Z,60454.79
2019-02-24T09:33:48.021Z,60454.79
2019-02-24T09:36:16.845Z,60447.68
2019-02-24T09:38:45.356Z,60445.65
2019-02-24T09:41:13.749Z,60429.39
2019-02-24T09:43:42.110Z,60443.61
2019-02-24T09:46:11.156Z,60426.34
2019-02-24T09:48:39.555Z,60423.29
2019-02-24T09:51:07.929Z,60441.58
2019-02-24T09:53:36.326Z,60438.53
2019-02-24T09:56:04.719Z,60434.47
2019-02-24T09:58:33.180Z,60423.29
2019-02-24T10:01:10.150Z,60413.13
2019-02-24T10:03:31.883Z,60414.14
2019-02-24T10:06:00.260Z,60399.92
2019-02-24T10:08:28.643Z,60396.87
2019-02-24T10:10:57.103Z,60413.13
2019-02-24T10:13:25.477Z,60403.98
2019-02-24T10:15:53.857Z,60400.93
2019-02-24T10:18:22.250Z,60407.03
2019-02-24T10:20:50.728Z,60384.68
2019-02-24T10:23:19.140Z,60381.63
2019-02-24T10:25:47.523Z,60360.29
2019-02-24T10:28:15.911Z,60360.29
2019-02-24T10:30:44.768Z,60382.64
2019-02-24T10:33:13.156Z,60361.30
2019-02-24T10:35:41.907Z,60362.32
2019-02-24T10:38:10.296Z,60359.27
2019-02-24T10:40:38.692Z,60366.39
2019-02-24T10:43:07.089Z,60354.19
2019-02-24T10:45:35.473Z,60322.69
2019-02-24T10:48:13.467Z,60350.12
2019-02-24T10:50:34.178Z,60362.32
2019-02-24T10:53:02.621Z,60334.88
2019-02-24T10:55:31.008Z,60331.84
2019-02-24T10:57:59.504Z,60348.09
2019-02-24T11:00:27.888Z,60328.79
2019-02-24T11:02:56.293Z,60334.88
2019-02-24T11:05:24.679Z,60319.64
2019-02-24T11:07:53.171Z,60358.25
2019-02-24T11:10:22.392Z,60326.75
2019-02-24T11:12:50.775Z,60339.96
2019-02-24T11:15:19.270Z,60311.51
2019-02-24T11:17:47.731Z,60346.06
2019-02-24T11:20:17.786Z,60338.95
2019-02-24T11:22:46.161Z,60317.61
2019-02-24T11:25:14.588Z,60301.35
2019-02-24T11:27:43.089Z,60299.32
2019-02-24T11:30:13.527Z,60308.46
2019-02-24T11:32:41.933Z,60293.22
2019-02-24T11:35:11.566Z,60303.38
2019-02-24T11:37:39.964Z,60296.27
2019-02-24T11:40:14.239Z,60294.24
2019-02-24T11:42:42.588Z,60308.46
2019-02-24T11:45:11.240Z,60312.53
2019-02-24T11:47:39.645Z,60314.56
2019-02-24T11:50:12.131Z,60291.19
2019-02-24T11:52:41.211Z,60300.34
2019-02-24T11:55:11.023Z,60316.59
2019-02-24T11:57:39.459Z,60292.21
2019-02-24T12:00:11.189Z,60329.80
2019-02-24T12:02:41.642Z,60318.62
2019-02-24T12:05:09.841Z,60333.87
2019-02-24T12:07:38.261Z,60308.46
2019-02-24T12:10:13.278Z,60335.90
2019-02-24T12:12:41.656Z,60305.41
2019-02-24T12:15:14.923Z,60324.72
2019-02-24T12:17:43.459Z,60318.62
2019-02-24T12:20:14.280Z,60321.67
2019-02-24T12:22:42.671Z,60316.59
2019-02-24T12:25:12.070Z,60306.43
2019-02-24T12:27:40.547Z,60308.46
2019-02-24T12:30:17.209Z,60308.46
2019-02-24T12:32:45.607Z,60294.24
2019-02-24T12:35:14.506Z,60329.80
2019-02-24T12:37:42.901Z,60333.87
2019-02-24T12:40:13.393Z,60315.57
2019-02-24T12:42:42.074Z,60309.48
2019-02-24T12:45:12.101Z,60296.27
2019-02-24T12:47:40.678Z,60308.46
2019-02-24T12:50:11.483Z,60330.82
2019-02-24T12:52:39.900Z,60307.45
2019-02-24T12:55:09.498Z,60309.48
2019-02-24T12:57:38.184Z,60306.43
2019-02-24T13:00:24.814Z,60300.34
2019-02-24T13:02:53.249Z,60304.40
2019-02-24T13:05:21.886Z,60320.66
2019-02-24T13:07:50.424Z,60302.37
2019-02-24T13:10:20.155Z,60297.29
2019-02-24T13:12:48.584Z,60290.17
2019-02-24T13:15:17.504Z,60283.06
2019-02-24T13:17:46.347Z,60289.16
2019-02-24T13:20:14.868Z,60263.75
2019-02-24T13:22:44.734Z,60293.22
2019-02-24T13:25:13.868Z,60310.50
2019-02-24T13:27:42.327Z,60296.27
2019-02-24T13:30:12.917Z,60297.29
2019-02-24T13:32:41.392Z,60296.27
2019-02-24T13:35:10.215Z,60287.12
2019-02-24T13:37:38.608Z,60296.27
2019-02-24T13:40:14.823Z,60292.21
2019-02-24T13:42:43.307Z,60300.34
2019-02-24T13:45:19.644Z,60295.25
2019-02-24T13:47:48.170Z,60314.56
2019-02-24T13:50:17.614Z,60308.46
2019-02-24T13:52:46.079Z,60335.90
2019-02-24T13:55:15.427Z,60309.48
2019-02-24T13:57:44.138Z,60308.46
2019-02-24T14:00:15.418Z,60288.14
2019-02-24T14:02:43.786Z,60304.40
2019-02-24T14:05:12.576Z,60294.24
2019-02-24T14:07:41.297Z,60309.48
2019-02-24T14:10:12.508Z,60298.30
2019-02-24T14:12:42.429Z,60292.21
2019-02-24T14:15:12.653Z,60313.54
2019-02-24T14:17:41.306Z,60330.82
2019-02-24T14:20:14.398Z,60305.41
2019-02-24T14:22:42.786Z,60305.41
2019-02-24T14:25:12.327Z,60312.53
2019-02-24T14:27:41.000Z,60326.75
2019-02-24T14:30:14.823Z,60309.48
2019-02-24T14:32:44.225Z,60316.59
2019-02-24T14:35:17.886Z,60320.66
2019-02-24T14:37:46.360Z,60310.50
2019-02-24T14:40:14.821Z,60291.19
2019-02-24T14:42:43.246Z,60300.34
2019-02-24T14:45:21.155Z,60305.41
2019-02-24T14:47:49.538Z,60301.35
2019-02-24T14:50:18.385Z,60328.79
2019-02-24T14:52:46.777Z,60315.57
2019-02-24T14:55:16.212Z,60330.82
2019-02-24T14:57:45.134Z,60336.91
2019-02-24T15:00:18.481Z,60316.59
2019-02-24T15:02:46.987Z,60317.61
2019-02-24T15:05:16.874Z,60314.56
2019-02-24T15:07:45.451Z,60326.75
2019-02-24T15:10:19.797Z,60327.77
2019-02-24T15:12:48.646Z,60309.48
2019-02-24T15:15:26.386Z,60332.85
2019-02-24T15:17:52.971Z,60321.67
2019-02-24T15:20:22.521Z,60323.71
2019-02-24T15:22:51.431Z,60322.69
2019-02-24T15:25:20.267Z,60337.93
2019-02-24T15:27:48.810Z,60321.67
2019-02-24T15:30:28.980Z,60346.06
2019-02-24T15:32:57.369Z,60332.85
2019-02-24T15:35:25.842Z,60324.72
2019-02-24T15:37:54.701Z,60328.79
2019-02-24T15:40:24.720Z,60345.04
2019-02-24T15:42:53.117Z,60320.66
2019-02-24T15:45:21.759Z,60342.00
2019-02-24T15:47:50.279Z,60347.08
2019-02-24T15:50:19.463Z,60332.85
2019-02-24T15:52:48.394Z,60330.82
2019-02-24T15:55:17.833Z,60331.84
2019-02-24T15:57:46.220Z,60326.75
2019-02-24T16:00:22.514Z,60340.98
2019-02-24T16:03:00.587Z,60347.08
2019-02-24T16:05:21.446Z,60334.88
2019-02-24T16:07:50.165Z,60333.87
2019-02-24T16:10:20.965Z,60351.14
2019-02-24T16:12:50.304Z,60351.14
2019-02-24T16:15:21.254Z,60326.75
2019-02-24T16:17:49.634Z,60335.90
2019-02-24T16:20:23.970Z,60347.08
2019-02-24T16:22:52.461Z,60351.14
2019-02-24T16:25:21.880Z,60336.91
2019-02-24T16:27:52.684Z,60361.30
2019-02-24T16:30:21.191Z,60368.42
2019-02-24T16:32:49.604Z,60309.48
2019-02-24T16:35:18.510Z,60347.08
2019-02-24T16:37:46.980Z,60359.27
2019-02-24T16:40:23.776Z,60355.21
2019-02-24T16:42:52.290Z,60333.87
2019-02-24T16:45:20.778Z,60328.79
2019-02-24T16:47:49.330Z,60354.19
2019-02-24T16:50:19.130Z,60347.08
2019-02-24T16:52:48.866Z,60344.03
2019-02-24T16:55:18.193Z,60358.25
2019-02-24T16:57:47.448Z,60362.32
2019-02-24T17:00:18.736Z,60350.12
2019-02-24T17:02:47.217Z,60381.63
2019-02-24T17:05:15.851Z,60357.24
2019-02-24T17:07:44.636Z,60358.25
2019-02-24T17:10:28.004Z,60373.50
2019-02-24T17:12:57.325Z,60347.08
2019-02-24T17:15:25.842Z,60366.39
2019-02-24T17:17:54.294Z,60351.14
2019-02-24T17:20:30.301Z,60375.53
2019-02-24T17:22:58.721Z,60348.09
2019-02-24T17:25:27.194Z,60369.43
2019-02-24T17:27:55.819Z,60357.24
2019-02-24T17:30:24.196Z,60368.42
2019-02-24T17:32:52.661Z,60393.82
2019-02-24T17:35:21.424Z,60385.69
2019-02-24T17:37:49.870Z,60368.42
2019-02-24T17:40:23.011Z,60390.77
2019-02-24T17:42:51.479Z,60410.08
2019-02-24T17:45:20.027Z,60396.87
2019-02-24T17:47:48.406Z,60415.16
2019-02-24T17:50:17.808Z,60368.42
2019-02-24T17:52:46.236Z,60380.61
2019-02-24T17:55:19.238Z,60377.56
2019-02-24T17:57:48.152Z,60371.46
2019-02-24T18:00:28.564Z,60379.59
2019-02-24T18:02:57.161Z,60351.14
2019-02-24T18:05:25.557Z,60379.59
2019-02-24T18:07:56.143Z,60366.39
2019-02-24T18:10:24.629Z,60379.59
2019-02-24T18:12:53.224Z,60402.97
2019-02-24T18:15:21.783Z,60396.87
2019-02-24T18:17:50.572Z,60402.97
2019-02-24T18:20:20.716Z,60412.11
2019-02-24T18:22:49.293Z,60397.89
2019-02-24T18:25:17.687Z,60408.05
2019-02-24T18:27:46.250Z,60393.82
2019-02-24T18:30:20.764Z,60400.93
2019-02-24T18:32:49.161Z,60403.98
2019-02-24T18:35:17.620Z,60421.26
2019-02-24T18:37:46.313Z,60407.03
2019-02-24T18:40:16.224Z,60429.39
2019-02-24T18:42:44.771Z,60391.79
2019-02-24T18:45:14.496Z,60416.18
2019-02-24T18:47:42.887Z,60450.73
2019-02-24T18:50:19.196Z,60408.05
2019-02-24T18:52:47.768Z,60402.97
2019-02-24T18:55:16.452Z,60369.43
2019-02-24T18:57:44.908Z,60402.97
2019-02-24T19:00:22.161Z,60412.11
2019-02-24T19:02:50.886Z,60384.68
2019-02-24T19:05:19.269Z,60401.95
2019-02-24T19:07:47.665Z,60419.23
2019-02-24T19:10:23.964Z,60369.43
2019-02-24T19:12:52.362Z,60396.87
2019-02-24T19:15:22.808Z,60396.87
2019-02-24T19:17:51.194Z,60391.79
2019-02-24T19:20:21.944Z,60405.00
2019-02-24T19:22:50.616Z,60410.08
2019-02-24T19:25:19.548Z,60410.08
2019-02-24T19:27:48.147Z,60410.08
2019-02-24T19:30:18.993Z,60444.63
2019-02-24T19:32:47.496Z,60428.37
2019-02-24T19:35:17.130Z,60428.37
2019-02-24T19:37:45.934Z,60426.34
2019-02-24T19:40:23.722Z,60399.92
2019-02-24T19:42:52.111Z,60439.55
2019-02-24T19:45:25.732Z,60418.21
2019-02-24T19:47:54.594Z,60427.36
2019-02-24T19:50:24.077Z,60408.05
2019-02-24T19:52:52.483Z,60408.05
2019-02-24T19:55:20.957Z,60401.95
2019-02-24T19:57:49.376Z,60455.81
2019-02-24T20:00:22.929Z,60455.81
2019-02-24T20:02:51.391Z,60401.95
2019-02-24T20:05:20.609Z,60428.37
2019-02-24T20:07:49.336Z,60421.26
2019-02-24T20:10:25.059Z,60421.26
2019-02-24T20:12:53.495Z,60427.36
2019-02-24T20:15:21.888Z,60418.21
2019-02-24T20:17:50.471Z,60418.21
2019-02-24T20:20:19.044Z,60423.29
2019-02-24T20:22:47.432Z,60423.29
2019-02-24T20:25:20.830Z,60408.05
2019-02-24T20:27:49.383Z,60427.36
2019-02-24T20:30:32.216Z,60421.26
2019-02-24T20:33:02.706Z,60421.26
2019-02-24T20:35:33.143Z,60430.40
2019-02-24T20:38:01.543Z,60430.40
2019-02-24T20:40:30.097Z,60420.24
2019-02-24T20:42:58.593Z,60424.31
2019-02-24T20:45:29.091Z,60424.31
2019-02-24T20:47:57.188Z,60449.71
2019-02-24T20:50:28.241Z,60401.95
2019-02-24T20:52:57.146Z,60401.95
2019-02-24T20:55:25.535Z,60420.24
2019-02-24T20:57:54.372Z,60420.24
2019-02-24T21:00:25.744Z,60412.11
2019-02-24T21:02:54.209Z,60418.21
2019-02-24T21:05:22.661Z,60434.47
2019-02-24T21:07:51.122Z,60434.47
2019-02-24T21:10:19.774Z,60421.26
2019-02-24T21:12:48.273Z,60421.26
2019-02-24T21:15:17.835Z,60423.29
2019-02-24T21:17:46.209Z,60423.29
2019-02-24T21:20:29.549Z,60441.58
2019-02-24T21:22:57.924Z,60422.27
2019-02-24T21:25:26.313Z,60422.27
2019-02-24T21:27:54.711Z,60442.60
2019-02-24T21:30:23.282Z,60464.96
2019-02-24T21:32:51.913Z,60450.73
2019-02-24T21:35:20.316Z,60458.86
2019-02-24T21:37:48.971Z,60458.86
2019-02-24T21:40:19.026Z,60424.31
2019-02-24T21:42:47.480Z,60438.53
2019-02-24T21:45:18.830Z,60411.10
2019-02-24T21:47:47.230Z,60428.37
2019-02-24T21:50:16.863Z,60428.37
2019-02-24T21:52:45.418Z,60430.40
2019-02-24T21:55:13.955Z,60439.55
2019-02-24T21:57:42.583Z,60420.24
2019-02-24T22:00:22.034Z,60420.24
2019-02-24T22:02:50.435Z,60424.31
2019-02-24T22:05:18.986Z,60416.18
2019-02-24T22:07:47.687Z,60416.18
2019-02-24T22:10:16.856Z,60414.14
2019-02-24T22:12:45.593Z,60443.61
2019-02-24T22:15:27.780Z,60407.03
2019-02-24T22:17:56.158Z,60407.03
2019-02-24T22:20:24.567Z,60419.23
2019-02-24T22:22:53.318Z,60438.53
2019-02-24T22:25:21.736Z,60438.53
2019-02-24T22:27:50.115Z,60428.37
2019-02-24T22:30:23.367Z,60466.99
2019-02-24T22:32:52.256Z,60448.70
2019-02-24T22:35:20.634Z,60445.65
2019-02-24T22:37:49.099Z,60420.24
2019-02-24T22:40:17.767Z,60443.61
2019-02-24T22:42:46.625Z,60444.63
2019-02-24T22:45:17.215Z,60432.44
2019-02-24T22:47:45.718Z,60448.70
2019-02-24T22:50:14.737Z,60422.27
2019-02-24T22:52:43.204Z,60431.42
2019-02-24T22:55:13.889Z,60438.53
2019-02-24T22:57:42.605Z,60464.96
2019-02-24T23:00:54.200Z,60444.63
2019-02-24T23:03:25.599Z,60444.63
2019-02-24T23:05:54.435Z,60456.82
2019-02-24T23:08:22.833Z,60456.82
2019-02-24T23:10:51.818Z,60456.82
2019-02-24T23:13:20.630Z,60456.82
2019-02-24T23:15:49.359Z,60472.07
2019-02-24T23:18:17.765Z,60472.07
2019-02-24T23:20:46.161Z,60421.26
2019-02-24T23:23:14.827Z,60461.91
2019-02-24T23:25:43.216Z,60461.91
2019-02-24T23:28:11.617Z,60442.60
2019-02-24T23:30:40.053Z,60456.82
2019-02-24T23:33:08.458Z,60430.40
2019-02-24T23:35:37.137Z,60424.31
2019-02-24T23:38:05.922Z,60424.31
2019-02-24T23:40:34.376Z,60436.50
2019-02-24T23:43:02.814Z,60446.66
2019-02-24T23:45:31.482Z,60452.76
2019-02-24T23:48:00.160Z,60433.45
2019-02-24T23:50:28.572Z,60442.60
2019-02-24T23:52:56.961Z,60442.60
2019-02-24T23:55:25.349Z,60434.47
2019-02-24T23:57:54.080Z,60444.63
